Terminal Aerodrome Forecast
Issued by NWS

Home | Current Version | Previous Version | Text Only | Print | Product List | Glossary Off
Versions: 1 2 3 4 5 6 7 8 9 10 11 12 13 14 15 16 17 18 19 20 21 22 23

000
FTUS43 KIWX 242327
TAFSBN
TAF
KSBN 242327Z 2500/2524 23007KT P6SM BKN080
     FM250100 23006KT P6SM VCTS BKN100CB
     FM251700 26007KT P6SM VCTS BKN045CB
     FM251800 28007KT P6SM OVC040
     FM252100 31008KT P6SM SCT050=

USA.gov is the U.S. government's official web portal to all federal, state and local government web resources and services.